sensor_id;sensor_type;location;lat;lon;timestamp;P1;durP1;ratioP1;P2;durP2;ratioP2
7361;SDS011;3721;44.490;11.220;2022-10-16T00:01:17;10.03;;;7.10;;
7361;SDS011;3721;44.490;11.220;2022-10-16T00:03:45;11.57;;;7.47;;
7361;SDS011;3721;44.490;11.220;2022-10-16T00:06:12;13.57;;;6.53;;
7361;SDS011;3721;44.490;11.220;2022-10-16T00:08:39;12.30;;;7.90;;
7361;SDS011;3721;44.490;11.220;2022-10-16T00:11:09;10.90;;;7.57;;
7361;SDS011;3721;44.490;11.220;2022-10-16T00:13:38;9.80;;;6.87;;
7361;SDS011;3721;44.490;11.220;2022-10-16T00:16:06;15.07;;;7.33;;
7361;SDS011;3721;44.490;11.220;2022-10-16T00:18:32;12.47;;;7.67;;
7361;SDS011;3721;44.490;11.220;2022-10-16T00:21:05;11.87;;;7.10;;
7361;SDS011;3721;44.490;11.220;2022-10-16T00:23:39;10.97;;;7.50;;
7361;SDS011;3721;44.490;11.220;2022-10-16T00:26:06;12.93;;;7.43;;
7361;SDS011;3721;44.490;11.220;2022-10-16T00:28:37;11.27;;;6.80;;
7361;SDS011;3721;44.490;11.220;2022-10-16T00:31:04;9.37;;;6.77;;
7361;SDS011;3721;44.490;11.220;2022-10-16T00:33:31;10.73;;;7.33;;
7361;SDS011;3721;44.490;11.220;2022-10-16T00:36:00;11.93;;;7.20;;
7361;SDS011;3721;44.490;11.220;2022-10-16T00:38:27;8.43;;;6.50;;
7361;SDS011;3721;44.490;11.220;2022-10-16T00:40:53;14.77;;;8.00;;
7361;SDS011;3721;44.490;11.220;2022-10-16T00:48:50;12.23;;;6.70;;
7361;SDS011;3721;44.490;11.220;2022-10-16T00:51:41;11.20;;;7.17;;
7361;SDS011;3721;44.490;11.220;2022-10-16T00:54:12;14.97;;;7.90;;
7361;SDS011;3721;44.490;11.220;2022-10-16T00:56:41;10.13;;;7.37;;
7361;SDS011;3721;44.490;11.220;2022-10-16T00:59:09;12.83;;;7.70;;
7361;SDS011;3721;44.490;11.220;2022-10-16T01:01:57;13.83;;;7.07;;
7361;SDS011;3721;44.490;11.220;2022-10-16T01:04:24;10.57;;;7.20;;
7361;SDS011;3721;44.490;11.220;2022-10-16T01:12:01;13.27;;;7.10;;
7361;SDS011;3721;44.490;11.220;2022-10-16T01:17:11;8.10;;;6.70;;
7361;SDS011;3721;44.490;11.220;2022-10-16T01:22:39;13.67;;;7.23;;
7361;SDS011;3721;44.490;11.220;2022-10-16T01:25:09;13.73;;;8.17;;
7361;SDS011;3721;44.490;11.220;2022-10-16T01:27:41;12.20;;;7.57;;
7361;SDS011;3721;44.490;11.220;2022-10-16T01:30:13;11.60;;;7.40;;
7361;SDS011;3721;44.490;11.220;2022-10-16T01:32:48;12.20;;;7.93;;
7361;SDS011;3721;44.490;11.220;2022-10-16T01:38:11;14.23;;;7.50;;
7361;SDS011;3721;44.490;11.220;2022-10-16T01:40:44;10.60;;;7.13;;
7361;SDS011;3721;44.490;11.220;2022-10-16T01:43:15;12.77;;;7.47;;
7361;SDS011;3721;44.490;11.220;2022-10-16T01:45:47;16.53;;;7.80;;
7361;SDS011;3721;44.490;11.220;2022-10-16T01:48:16;11.30;;;8.00;;
7361;SDS011;3721;44.490;11.220;2022-10-16T01:50:44;9.57;;;6.83;;
7361;SDS011;3721;44.490;11.220;2022-10-16T01:53:20;12.50;;;8.00;;
7361;SDS011;3721;44.490;11.220;2022-10-16T01:55:47;10.20;;;7.97;;
7361;SDS011;3721;44.490;11.220;2022-10-16T01:58:15;10.97;;;7.10;;
7361;SDS011;3721;44.490;11.220;2022-10-16T02:00:43;15.00;;;8.80;;
7361;SDS011;3721;44.490;11.220;2022-10-16T02:03:10;12.20;;;7.77;;
7361;SDS011;3721;44.490;11.220;2022-10-16T02:05:46;9.80;;;6.80;;
7361;SDS011;3721;44.490;11.220;2022-10-16T02:08:12;11.53;;;7.30;;
7361;SDS011;3721;44.490;11.220;2022-10-16T02:10:38;9.70;;;6.93;;
7361;SDS011;3721;44.490;11.220;2022-10-16T02:13:09;14.13;;;8.17;;
7361;SDS011;3721;44.490;11.220;2022-10-16T02:15:42;17.10;;;8.60;;
7361;SDS011;3721;44.490;11.220;2022-10-16T02:18:08;11.77;;;7.53;;
7361;SDS011;3721;44.490;11.220;2022-10-16T02:20:41;11.73;;;8.10;;
7361;SDS011;3721;44.490;11.220;2022-10-16T02:23:14;10.87;;;7.17;;
7361;SDS011;3721;44.490;11.220;2022-10-16T02:25:45;12.83;;;6.90;;
7361;SDS011;3721;44.490;11.220;2022-10-16T02:30:45;10.50;;;6.97;;
7361;SDS011;3721;44.490;11.220;2022-10-16T02:33:15;13.23;;;7.43;;
7361;SDS011;3721;44.490;11.220;2022-10-16T02:35:42;11.43;;;7.27;;
7361;SDS011;3721;44.490;11.220;2022-10-16T02:38:11;9.90;;;7.33;;
7361;SDS011;3721;44.490;11.220;2022-10-16T02:40:38;10.43;;;7.30;;
7361;SDS011;3721;44.490;11.220;2022-10-16T02:43:05;12.83;;;7.43;;
7361;SDS011;3721;44.490;11.220;2022-10-16T02:45:31;11.77;;;7.60;;
7361;SDS011;3721;44.490;11.220;2022-10-16T02:47:58;9.97;;;7.20;;
7361;SDS011;3721;44.490;11.220;2022-10-16T02:50:23;13.37;;;7.03;;
7361;SDS011;3721;44.490;11.220;2022-10-16T02:52:50;14.97;;;8.07;;
7361;SDS011;3721;44.490;11.220;2022-10-16T02:55:16;13.23;;;8.20;;
7361;SDS011;3721;44.490;11.220;2022-10-16T02:57:42;10.27;;;7.83;;
7361;SDS011;3721;44.490;11.220;2022-10-16T03:00:08;8.60;;;7.43;;
7361;SDS011;3721;44.490;11.220;2022-10-16T03:02:36;14.53;;;7.93;;
7361;SDS011;3721;44.490;11.220;2022-10-16T03:05:02;12.87;;;7.93;;
7361;SDS011;3721;44.490;11.220;2022-10-16T03:07:29;15.07;;;8.10;;
7361;SDS011;3721;44.490;11.220;2022-10-16T03:09:54;11.53;;;7.37;;
7361;SDS011;3721;44.490;11.220;2022-10-16T03:12:20;14.83;;;9.00;;
7361;SDS011;3721;44.490;11.220;2022-10-16T03:14:46;11.53;;;7.60;;
7361;SDS011;3721;44.490;11.220;2022-10-16T03:17:12;10.60;;;7.37;;
7361;SDS011;3721;44.490;11.220;2022-10-16T03:19:38;11.57;;;8.03;;
7361;SDS011;3721;44.490;11.220;2022-10-16T03:22:04;12.53;;;8.27;;
7361;SDS011;3721;44.490;11.220;2022-10-16T03:24:30;10.20;;;7.77;;
7361;SDS011;3721;44.490;11.220;2022-10-16T03:26:55;16.53;;;8.77;;
7361;SDS011;3721;44.490;11.220;2022-10-16T03:29:21;13.23;;;8.20;;
7361;SDS011;3721;44.490;11.220;2022-10-16T03:31:47;11.80;;;7.87;;
7361;SDS011;3721;44.490;11.220;2022-10-16T03:34:14;13.03;;;8.10;;
7361;SDS011;3721;44.490;11.220;2022-10-16T03:36:40;14.70;;;8.40;;
7361;SDS011;3721;44.490;11.220;2022-10-16T03:39:06;13.20;;;8.60;;
7361;SDS011;3721;44.490;11.220;2022-10-16T03:41:32;11.17;;;8.13;;
7361;SDS011;3721;44.490;11.220;2022-10-16T03:43:57;20.60;;;8.67;;
7361;SDS011;3721;44.490;11.220;2022-10-16T03:46:23;13.07;;;8.50;;
7361;SDS011;3721;44.490;11.220;2022-10-16T03:48:49;16.20;;;8.60;;
7361;SDS011;3721;44.490;11.220;2022-10-16T03:51:14;14.07;;;8.73;;
7361;SDS011;3721;44.490;11.220;2022-10-16T03:53:40;13.40;;;9.10;;
7361;SDS011;3721;44.490;11.220;2022-10-16T03:56:06;12.23;;;7.77;;
7361;SDS011;3721;44.490;11.220;2022-10-16T03:58:32;16.30;;;8.60;;
7361;SDS011;3721;44.490;11.220;2022-10-16T04:00:58;13.37;;;8.40;;
7361;SDS011;3721;44.490;11.220;2022-10-16T04:03:23;15.60;;;9.47;;
7361;SDS011;3721;44.490;11.220;2022-10-16T04:05:49;11.63;;;7.83;;
7361;SDS011;3721;44.490;11.220;2022-10-16T04:08:15;14.03;;;8.33;;
7361;SDS011;3721;44.490;11.220;2022-10-16T04:10:44;14.30;;;9.07;;
7361;SDS011;3721;44.490;11.220;2022-10-16T04:13:10;12.37;;;8.73;;
7361;SDS011;3721;44.490;11.220;2022-10-16T04:15:37;17.27;;;8.50;;
7361;SDS011;3721;44.490;11.220;2022-10-16T04:18:03;13.63;;;9.57;;
7361;SDS011;3721;44.490;11.220;2022-10-16T04:20:29;14.20;;;9.80;;
7361;SDS011;3721;44.490;11.220;2022-10-16T04:22:55;15.90;;;9.90;;
7361;SDS011;3721;44.490;11.220;2022-10-16T04:25:21;14.90;;;9.00;;
7361;SDS011;3721;44.490;11.220;2022-10-16T04:27:47;15.13;;;8.80;;
7361;SDS011;3721;44.490;11.220;2022-10-16T04:30:13;15.40;;;9.80;;
7361;SDS011;3721;44.490;11.220;2022-10-16T04:32:39;12.33;;;9.00;;
7361;SDS011;3721;44.490;11.220;2022-10-16T04:35:06;13.20;;;10.17;;
7361;SDS011;3721;44.490;11.220;2022-10-16T04:37:33;15.10;;;8.80;;
7361;SDS011;3721;44.490;11.220;2022-10-16T04:39:58;15.07;;;9.13;;
7361;SDS011;3721;44.490;11.220;2022-10-16T04:42:24;12.17;;;8.97;;
7361;SDS011;3721;44.490;11.220;2022-10-16T04:44:50;11.53;;;8.50;;
7361;SDS011;3721;44.490;11.220;2022-10-16T04:47:15;15.70;;;9.17;;
7361;SDS011;3721;44.490;11.220;2022-10-16T04:49:41;11.77;;;8.97;;
7361;SDS011;3721;44.490;11.220;2022-10-16T04:52:07;13.47;;;9.47;;
7361;SDS011;3721;44.490;11.220;2022-10-16T04:54:34;15.27;;;11.17;;
7361;SDS011;3721;44.490;11.220;2022-10-16T04:57:00;14.80;;;10.73;;
7361;SDS011;3721;44.490;11.220;2022-10-16T04:59:25;13.97;;;10.20;;
7361;SDS011;3721;44.490;11.220;2022-10-16T05:01:51;17.73;;;10.77;;
7361;SDS011;3721;44.490;11.220;2022-10-16T05:04:17;14.90;;;9.67;;
7361;SDS011;3721;44.490;11.220;2022-10-16T05:06:43;12.50;;;9.47;;
7361;SDS011;3721;44.490;11.220;2022-10-16T05:09:08;14.67;;;9.63;;
7361;SDS011;3721;44.490;11.220;2022-10-16T05:11:35;17.43;;;10.43;;
7361;SDS011;3721;44.490;11.220;2022-10-16T05:14:00;16.33;;;10.70;;
7361;SDS011;3721;44.490;11.220;2022-10-16T05:16:26;19.03;;;10.77;;
7361;SDS011;3721;44.490;11.220;2022-10-16T05:18:52;15.10;;;9.57;;
7361;SDS011;3721;44.490;11.220;2022-10-16T05:21:18;15.50;;;11.00;;
7361;SDS011;3721;44.490;11.220;2022-10-16T05:23:44;13.90;;;10.27;;
7361;SDS011;3721;44.490;11.220;2022-10-16T05:26:10;19.60;;;10.90;;
7361;SDS011;3721;44.490;11.220;2022-10-16T05:28:36;13.87;;;10.13;;
7361;SDS011;3721;44.490;11.220;2022-10-16T05:31:05;17.43;;;10.10;;
7361;SDS011;3721;44.490;11.220;2022-10-16T05:33:32;15.90;;;10.37;;
7361;SDS011;3721;44.490;11.220;2022-10-16T05:36:02;19.33;;;9.87;;
7361;SDS011;3721;44.490;11.220;2022-10-16T05:38:29;14.47;;;10.80;;
7361;SDS011;3721;44.490;11.220;2022-10-16T05:40:55;18.73;;;10.10;;
7361;SDS011;3721;44.490;11.220;2022-10-16T05:43:21;15.03;;;10.53;;
7361;SDS011;3721;44.490;11.220;2022-10-16T05:45:56;20.90;;;10.07;;
7361;SDS011;3721;44.490;11.220;2022-10-16T05:48:27;17.80;;;11.03;;
7361;SDS011;3721;44.490;11.220;2022-10-16T05:51:01;16.37;;;10.73;;
7361;SDS011;3721;44.490;11.220;2022-10-16T05:53:30;15.60;;;9.90;;
7361;SDS011;3721;44.490;11.220;2022-10-16T05:55:57;14.07;;;10.87;;
7361;SDS011;3721;44.490;11.220;2022-10-16T05:58:23;15.17;;;10.43;;
7361;SDS011;3721;44.490;11.220;2022-10-16T06:00:53;17.43;;;10.83;;
7361;SDS011;3721;44.490;11.220;2022-10-16T06:03:19;15.63;;;10.70;;
7361;SDS011;3721;44.490;11.220;2022-10-16T06:05:45;14.53;;;10.23;;
7361;SDS011;3721;44.490;11.220;2022-10-16T06:08:10;12.17;;;9.30;;
7361;SDS011;3721;44.490;11.220;2022-10-16T06:10:36;17.20;;;10.40;;
7361;SDS011;3721;44.490;11.220;2022-10-16T06:13:02;13.20;;;10.17;;
7361;SDS011;3721;44.490;11.220;2022-10-16T06:15:27;18.70;;;9.57;;
7361;SDS011;3721;44.490;11.220;2022-10-16T06:17:54;13.40;;;10.37;;
7361;SDS011;3721;44.490;11.220;2022-10-16T06:20:20;15.70;;;10.90;;
7361;SDS011;3721;44.490;11.220;2022-10-16T06:22:46;15.07;;;9.90;;
7361;SDS011;3721;44.490;11.220;2022-10-16T06:25:11;18.23;;;10.83;;
7361;SDS011;3721;44.490;11.220;2022-10-16T06:27:39;19.23;;;9.70;;
7361;SDS011;3721;44.490;11.220;2022-10-16T06:30:05;16.63;;;10.67;;
7361;SDS011;3721;44.490;11.220;2022-10-16T06:32:32;19.10;;;10.00;;
7361;SDS011;3721;44.490;11.220;2022-10-16T06:34:57;12.60;;;9.20;;
7361;SDS011;3721;44.490;11.220;2022-10-16T06:37:23;10.83;;;8.50;;
7361;SDS011;3721;44.490;11.220;2022-10-16T06:39:49;14.00;;;8.67;;
7361;SDS011;3721;44.490;11.220;2022-10-16T06:42:17;15.33;;;9.40;;
7361;SDS011;3721;44.490;11.220;2022-10-16T06:44:43;18.07;;;9.60;;
7361;SDS011;3721;44.490;11.220;2022-10-16T06:47:09;17.70;;;10.17;;
7361;SDS011;3721;44.490;11.220;2022-10-16T06:49:35;15.90;;;9.80;;
7361;SDS011;3721;44.490;11.220;2022-10-16T06:52:01;17.23;;;11.73;;
7361;SDS011;3721;44.490;11.220;2022-10-16T06:54:27;18.60;;;13.33;;
7361;SDS011;3721;44.490;11.220;2022-10-16T06:56:53;19.00;;;14.17;;
7361;SDS011;3721;44.490;11.220;2022-10-16T06:59:20;18.30;;;12.87;;
7361;SDS011;3721;44.490;11.220;2022-10-16T07:01:46;17.10;;;12.87;;
7361;SDS011;3721;44.490;11.220;2022-10-16T07:04:11;22.63;;;14.00;;
7361;SDS011;3721;44.490;11.220;2022-10-16T07:06:37;24.37;;;14.57;;
7361;SDS011;3721;44.490;11.220;2022-10-16T07:09:04;20.67;;;14.50;;
7361;SDS011;3721;44.490;11.220;2022-10-16T07:11:32;19.40;;;14.50;;
7361;SDS011;3721;44.490;11.220;2022-10-16T07:13:59;19.67;;;14.47;;
7361;SDS011;3721;44.490;11.220;2022-10-16T07:16:26;21.87;;;15.70;;
7361;SDS011;3721;44.490;11.220;2022-10-16T07:18:56;22.60;;;14.93;;
7361;SDS011;3721;44.490;11.220;2022-10-16T07:21:24;17.03;;;13.10;;
7361;SDS011;3721;44.490;11.220;2022-10-16T07:23:51;19.97;;;13.70;;
7361;SDS011;3721;44.490;11.220;2022-10-16T07:26:22;21.90;;;13.93;;
7361;SDS011;3721;44.490;11.220;2022-10-16T07:28:48;23.67;;;14.83;;
7361;SDS011;3721;44.490;11.220;2022-10-16T07:31:15;23.23;;;15.60;;
7361;SDS011;3721;44.490;11.220;2022-10-16T07:33:42;29.43;;;15.20;;
7361;SDS011;3721;44.490;11.220;2022-10-16T07:36:10;24.23;;;16.77;;
7361;SDS011;3721;44.490;11.220;2022-10-16T07:38:36;28.03;;;17.60;;
7361;SDS011;3721;44.490;11.220;2022-10-16T07:41:04;21.57;;;15.07;;
7361;SDS011;3721;44.490;11.220;2022-10-16T07:43:34;18.70;;;14.20;;
7361;SDS011;3721;44.490;11.220;2022-10-16T07:46:00;22.67;;;14.00;;
7361;SDS011;3721;44.490;11.220;2022-10-16T07:48:26;19.70;;;13.60;;
7361;SDS011;3721;44.490;11.220;2022-10-16T07:50:57;17.50;;;11.90;;
7361;SDS011;3721;44.490;11.220;2022-10-16T07:53:24;18.30;;;12.83;;
7361;SDS011;3721;44.490;11.220;2022-10-16T07:55:50;19.07;;;12.50;;
7361;SDS011;3721;44.490;11.220;2022-10-16T07:58:17;16.97;;;12.43;;
7361;SDS011;3721;44.490;11.220;2022-10-16T08:00:42;19.80;;;13.23;;
7361;SDS011;3721;44.490;11.220;2022-10-16T08:03:08;19.13;;;12.87;;
7361;SDS011;3721;44.490;11.220;2022-10-16T08:05:34;18.23;;;11.57;;
7361;SDS011;3721;44.490;11.220;2022-10-16T08:08:00;20.93;;;12.33;;
7361;SDS011;3721;44.490;11.220;2022-10-16T08:10:27;19.63;;;11.40;;
7361;SDS011;3721;44.490;11.220;2022-10-16T08:12:53;16.50;;;12.20;;
7361;SDS011;3721;44.490;11.220;2022-10-16T08:15:19;16.50;;;10.90;;
7361;SDS011;3721;44.490;11.220;2022-10-16T08:17:54;16.30;;;11.60;;
7361;SDS011;3721;44.490;11.220;2022-10-16T08:20:24;18.23;;;11.50;;
7361;SDS011;3721;44.490;11.220;2022-10-16T08:22:50;14.07;;;11.00;;
7361;SDS011;3721;44.490;11.220;2022-10-16T08:25:16;14.37;;;11.10;;
7361;SDS011;3721;44.490;11.220;2022-10-16T08:27:42;16.17;;;10.50;;
7361;SDS011;3721;44.490;11.220;2022-10-16T08:30:08;14.90;;;10.90;;
7361;SDS011;3721;44.490;11.220;2022-10-16T08:32:34;14.57;;;11.60;;
7361;SDS011;3721;44.490;11.220;2022-10-16T08:35:00;16.87;;;10.80;;
7361;SDS011;3721;44.490;11.220;2022-10-16T08:37:29;15.67;;;10.97;;
7361;SDS011;3721;44.490;11.220;2022-10-16T08:39:58;19.80;;;11.73;;
7361;SDS011;3721;44.490;11.220;2022-10-16T08:51:06;16.30;;;10.57;;
7361;SDS011;3721;44.490;11.220;2022-10-16T08:56:31;13.13;;;9.87;;
7361;SDS011;3721;44.490;11.220;2022-10-16T08:58:58;13.93;;;10.30;;
7361;SDS011;3721;44.490;11.220;2022-10-16T09:01:25;12.87;;;9.60;;
7361;SDS011;3721;44.490;11.220;2022-10-16T09:06:38;17.03;;;11.60;;
7361;SDS011;3721;44.490;11.220;2022-10-16T09:12:44;16.77;;;10.53;;
7361;SDS011;3721;44.490;11.220;2022-10-16T09:18:02;17.67;;;10.90;;
7361;SDS011;3721;44.490;11.220;2022-10-16T09:20:53;18.63;;;11.20;;
7361;SDS011;3721;44.490;11.220;2022-10-16T09:23:26;20.90;;;12.10;;
7361;SDS011;3721;44.490;11.220;2022-10-16T09:25:56;13.17;;;10.27;;
7361;SDS011;3721;44.490;11.220;2022-10-16T09:28:23;15.07;;;9.50;;
7361;SDS011;3721;44.490;11.220;2022-10-16T09:30:49;15.60;;;11.00;;
7361;SDS011;3721;44.490;11.220;2022-10-16T09:33:15;16.47;;;10.30;;
7361;SDS011;3721;44.490;11.220;2022-10-16T09:35:45;15.13;;;9.50;;
7361;SDS011;3721;44.490;11.220;2022-10-16T09:40:53;15.37;;;10.40;;
7361;SDS011;3721;44.490;11.220;2022-10-16T09:43:22;14.40;;;10.13;;
7361;SDS011;3721;44.490;11.220;2022-10-16T09:48:49;14.47;;;9.80;;
7361;SDS011;3721;44.490;11.220;2022-10-16T09:51:18;16.10;;;10.23;;
7361;SDS011;3721;44.490;11.220;2022-10-16T09:53:48;15.90;;;10.67;;
7361;SDS011;3721;44.490;11.220;2022-10-16T09:56:22;16.03;;;10.53;;
7361;SDS011;3721;44.490;11.220;2022-10-16T09:58:51;14.03;;;10.00;;
7361;SDS011;3721;44.490;11.220;2022-10-16T10:01:18;16.27;;;10.63;;
7361;SDS011;3721;44.490;11.220;2022-10-16T10:03:45;15.37;;;10.00;;
7361;SDS011;3721;44.490;11.220;2022-10-16T10:06:26;13.07;;;8.90;;
7361;SDS011;3721;44.490;11.220;2022-10-16T10:09:05;18.30;;;11.40;;
7361;SDS011;3721;44.490;11.220;2022-10-16T10:16:50;17.63;;;12.10;;
7361;SDS011;3721;44.490;11.220;2022-10-16T10:21:44;17.17;;;11.33;;
7361;SDS011;3721;44.490;11.220;2022-10-16T10:24:11;13.40;;;9.53;;
7361;SDS011;3721;44.490;11.220;2022-10-16T10:26:38;15.20;;;10.43;;
7361;SDS011;3721;44.490;11.220;2022-10-16T10:32:08;20.10;;;10.60;;
7361;SDS011;3721;44.490;11.220;2022-10-16T10:35:13;14.80;;;10.23;;
7361;SDS011;3721;44.490;11.220;2022-10-16T10:37:55;18.27;;;10.97;;
7361;SDS011;3721;44.490;11.220;2022-10-16T10:41:05;18.70;;;11.03;;
7361;SDS011;3721;44.490;11.220;2022-10-16T10:49:35;18.73;;;9.27;;
7361;SDS011;3721;44.490;11.220;2022-10-16T10:57:52;26.63;;;12.97;;
7361;SDS011;3721;44.490;11.220;2022-10-16T11:06:33;15.17;;;9.80;;
7361;SDS011;3721;44.490;11.220;2022-10-16T11:17:27;19.37;;;10.50;;
7361;SDS011;3721;44.490;11.220;2022-10-16T11:19:58;15.60;;;10.27;;
7361;SDS011;3721;44.490;11.220;2022-10-16T11:22:38;18.90;;;9.83;;
7361;SDS011;3721;44.490;11.220;2022-10-16T11:25:19;15.73;;;9.70;;
7361;SDS011;3721;44.490;11.220;2022-10-16T11:30:49;17.77;;;10.80;;
7361;SDS011;3721;44.490;11.220;2022-10-16T11:34:03;14.77;;;8.67;;
7361;SDS011;3721;44.490;11.220;2022-10-16T11:36:14;15.27;;;9.10;;
7361;SDS011;3721;44.490;11.220;2022-10-16T11:41:39;12.67;;;8.83;;
7361;SDS011;3721;44.490;11.220;2022-10-16T11:49:30;13.63;;;8.67;;
7361;SDS011;3721;44.490;11.220;2022-10-16T11:54:56;15.43;;;9.70;;
7361;SDS011;3721;44.490;11.220;2022-10-16T11:57:47;16.57;;;9.10;;
7361;SDS011;3721;44.490;11.220;2022-10-16T12:00:20;13.00;;;9.47;;
7361;SDS011;3721;44.490;11.220;2022-10-16T12:05:22;10.77;;;7.67;;
7361;SDS011;3721;44.490;11.220;2022-10-16T12:10:34;18.07;;;9.90;;
7361;SDS011;3721;44.490;11.220;2022-10-16T12:13:04;20.90;;;9.63;;
7361;SDS011;3721;44.490;11.220;2022-10-16T12:15:49;14.00;;;9.27;;
7361;SDS011;3721;44.490;11.220;2022-10-16T12:18:22;16.07;;;8.23;;
7361;SDS011;3721;44.490;11.220;2022-10-16T12:20:58;13.60;;;8.23;;
7361;SDS011;3721;44.490;11.220;2022-10-16T12:23:30;11.37;;;8.33;;
7361;SDS011;3721;44.490;11.220;2022-10-16T12:26:00;18.03;;;9.20;;
7361;SDS011;3721;44.490;11.220;2022-10-16T12:28:28;13.83;;;9.27;;
7361;SDS011;3721;44.490;11.220;2022-10-16T12:33:28;19.00;;;7.83;;
7361;SDS011;3721;44.490;11.220;2022-10-16T12:35:59;19.67;;;9.90;;
7361;SDS011;3721;44.490;11.220;2022-10-16T12:38:30;15.60;;;8.90;;
7361;SDS011;3721;44.490;11.220;2022-10-16T12:41:24;16.13;;;7.80;;
7361;SDS011;3721;44.490;11.220;2022-10-16T12:43:53;12.77;;;8.67;;
7361;SDS011;3721;44.490;11.220;2022-10-16T12:48:49;13.53;;;7.90;;
7361;SDS011;3721;44.490;11.220;2022-10-16T12:57:25;16.07;;;10.07;;
7361;SDS011;3721;44.490;11.220;2022-10-16T13:00:19;12.60;;;8.47;;
7361;SDS011;3721;44.490;11.220;2022-10-16T13:05:54;14.63;;;9.30;;
7361;SDS011;3721;44.490;11.220;2022-10-16T13:11:17;13.20;;;8.87;;
7361;SDS011;3721;44.490;11.220;2022-10-16T13:13:58;9.23;;;7.20;;
7361;SDS011;3721;44.490;11.220;2022-10-16T13:22:39;17.10;;;8.67;;
7361;SDS011;3721;44.490;11.220;2022-10-16T13:28:00;15.40;;;7.70;;
7361;SDS011;3721;44.490;11.220;2022-10-16T13:30:39;9.87;;;7.97;;
7361;SDS011;3721;44.490;11.220;2022-10-16T13:35:47;15.67;;;7.87;;
7361;SDS011;3721;44.490;11.220;2022-10-16T13:38:36;10.43;;;7.70;;
7361;SDS011;3721;44.490;11.220;2022-10-16T13:41:05;11.77;;;7.73;;
7361;SDS011;3721;44.490;11.220;2022-10-16T13:46:10;10.27;;;7.73;;
7361;SDS011;3721;44.490;11.220;2022-10-16T13:48:37;11.00;;;7.37;;
7361;SDS011;3721;44.490;11.220;2022-10-16T13:51:04;9.70;;;7.33;;
7361;SDS011;3721;44.490;11.220;2022-10-16T13:53:31;11.00;;;7.53;;
7361;SDS011;3721;44.490;11.220;2022-10-16T13:55:59;11.23;;;7.43;;
7361;SDS011;3721;44.490;11.220;2022-10-16T13:58:27;10.23;;;7.30;;
7361;SDS011;3721;44.490;11.220;2022-10-16T14:00:53;13.53;;;7.57;;
7361;SDS011;3721;44.490;11.220;2022-10-16T14:03:24;13.17;;;7.10;;
7361;SDS011;3721;44.490;11.220;2022-10-16T14:05:55;11.47;;;7.27;;
7361;SDS011;3721;44.490;11.220;2022-10-16T14:08:25;10.70;;;7.37;;
7361;SDS011;3721;44.490;11.220;2022-10-16T14:10:54;13.50;;;6.90;;
7361;SDS011;3721;44.490;11.220;2022-10-16T14:15:59;10.63;;;6.40;;
7361;SDS011;3721;44.490;11.220;2022-10-16T14:18:29;12.77;;;8.17;;
7361;SDS011;3721;44.490;11.220;2022-10-16T14:21:02;16.90;;;7.47;;
7361;SDS011;3721;44.490;11.220;2022-10-16T14:23:34;9.10;;;6.53;;
7361;SDS011;3721;44.490;11.220;2022-10-16T14:28:34;11.40;;;6.40;;
7361;SDS011;3721;44.490;11.220;2022-10-16T14:31:00;13.20;;;6.70;;
7361;SDS011;3721;44.490;11.220;2022-10-16T14:36:10;10.03;;;6.40;;
7361;SDS011;3721;44.490;11.220;2022-10-16T14:38:38;16.03;;;7.33;;
7361;SDS011;3721;44.490;11.220;2022-10-16T14:41:06;13.97;;;7.70;;
7361;SDS011;3721;44.490;11.220;2022-10-16T14:43:39;11.97;;;7.10;;
7361;SDS011;3721;44.490;11.220;2022-10-16T14:46:13;9.17;;;5.77;;
7361;SDS011;3721;44.490;11.220;2022-10-16T14:48:42;7.57;;;6.07;;
7361;SDS011;3721;44.490;11.220;2022-10-16T14:51:14;10.27;;;6.50;;
7361;SDS011;3721;44.490;11.220;2022-10-16T14:53:41;11.07;;;6.90;;
7361;SDS011;3721;44.490;11.220;2022-10-16T14:56:16;13.20;;;6.30;;
7361;SDS011;3721;44.490;11.220;2022-10-16T14:58:46;11.53;;;7.53;;
7361;SDS011;3721;44.490;11.220;2022-10-16T15:01:12;10.93;;;6.70;;
7361;SDS011;3721;44.490;11.220;2022-10-16T15:03:38;11.20;;;6.70;;
7361;SDS011;3721;44.490;11.220;2022-10-16T15:06:07;12.00;;;6.83;;
7361;SDS011;3721;44.490;11.220;2022-10-16T15:08:41;10.20;;;5.67;;
7361;SDS011;3721;44.490;11.220;2022-10-16T15:11:16;8.40;;;6.17;;
7361;SDS011;3721;44.490;11.220;2022-10-16T15:13:44;9.70;;;5.70;;
7361;SDS011;3721;44.490;11.220;2022-10-16T15:16:10;12.43;;;6.40;;
7361;SDS011;3721;44.490;11.220;2022-10-16T15:18:38;10.53;;;6.13;;
7361;SDS011;3721;44.490;11.220;2022-10-16T15:21:04;11.30;;;6.30;;
7361;SDS011;3721;44.490;11.220;2022-10-16T15:23:30;11.40;;;5.60;;
7361;SDS011;3721;44.490;11.220;2022-10-16T15:25:55;10.90;;;6.70;;
7361;SDS011;3721;44.490;11.220;2022-10-16T15:28:22;9.90;;;6.07;;
7361;SDS011;3721;44.490;11.220;2022-10-16T15:30:50;14.83;;;6.80;;
7361;SDS011;3721;44.490;11.220;2022-10-16T15:33:18;8.90;;;5.57;;
7361;SDS011;3721;44.490;11.220;2022-10-16T15:35:49;12.17;;;5.87;;
7361;SDS011;3721;44.490;11.220;2022-10-16T15:38:17;7.10;;;5.30;;
7361;SDS011;3721;44.490;11.220;2022-10-16T15:40:44;11.97;;;5.37;;
7361;SDS011;3721;44.490;11.220;2022-10-16T15:43:10;9.30;;;5.23;;
7361;SDS011;3721;44.490;11.220;2022-10-16T15:45:36;11.53;;;5.70;;
7361;SDS011;3721;44.490;11.220;2022-10-16T15:48:02;9.03;;;5.13;;
7361;SDS011;3721;44.490;11.220;2022-10-16T15:50:28;9.23;;;5.90;;
7361;SDS011;3721;44.490;11.220;2022-10-16T15:52:55;9.10;;;5.47;;
7361;SDS011;3721;44.490;11.220;2022-10-16T15:55:21;10.17;;;5.37;;
7361;SDS011;3721;44.490;11.220;2022-10-16T15:57:47;8.60;;;5.50;;
7361;SDS011;3721;44.490;11.220;2022-10-16T16:00:14;8.23;;;4.80;;
7361;SDS011;3721;44.490;11.220;2022-10-16T16:02:42;9.60;;;5.53;;
7361;SDS011;3721;44.490;11.220;2022-10-16T16:05:09;11.50;;;5.97;;
7361;SDS011;3721;44.490;11.220;2022-10-16T16:07:36;9.37;;;5.43;;
7361;SDS011;3721;44.490;11.220;2022-10-16T16:10:04;11.17;;;6.57;;
7361;SDS011;3721;44.490;11.220;2022-10-16T16:12:31;9.60;;;5.87;;
7361;SDS011;3721;44.490;11.220;2022-10-16T16:14:57;12.00;;;6.47;;
7361;SDS011;3721;44.490;11.220;2022-10-16T16:17:23;7.73;;;5.30;;
7361;SDS011;3721;44.490;11.220;2022-10-16T16:19:49;13.90;;;6.00;;
7361;SDS011;3721;44.490;11.220;2022-10-16T16:22:15;9.43;;;5.03;;
7361;SDS011;3721;44.490;11.220;2022-10-16T16:24:41;7.33;;;5.63;;
7361;SDS011;3721;44.490;11.220;2022-10-16T16:27:07;10.83;;;5.80;;
7361;SDS011;3721;44.490;11.220;2022-10-16T16:29:33;11.43;;;5.57;;
7361;SDS011;3721;44.490;11.220;2022-10-16T16:31:59;9.63;;;5.40;;
7361;SDS011;3721;44.490;11.220;2022-10-16T16:34:26;7.27;;;4.90;;
7361;SDS011;3721;44.490;11.220;2022-10-16T16:36:53;7.87;;;5.50;;
7361;SDS011;3721;44.490;11.220;2022-10-16T16:39:20;7.90;;;5.73;;
7361;SDS011;3721;44.490;11.220;2022-10-16T16:41:46;11.20;;;6.63;;
7361;SDS011;3721;44.490;11.220;2022-10-16T16:44:12;10.93;;;5.80;;
7361;SDS011;3721;44.490;11.220;2022-10-16T16:46:40;10.47;;;5.57;;
7361;SDS011;3721;44.490;11.220;2022-10-16T16:49:08;10.23;;;6.13;;
7361;SDS011;3721;44.490;11.220;2022-10-16T16:51:37;6.93;;;5.17;;
7361;SDS011;3721;44.490;11.220;2022-10-16T16:54:04;9.60;;;6.30;;
7361;SDS011;3721;44.490;11.220;2022-10-16T16:56:31;8.63;;;5.40;;
7361;SDS011;3721;44.490;11.220;2022-10-16T16:58:57;18.53;;;11.57;;
7361;SDS011;3721;44.490;11.220;2022-10-16T17:01:24;17.63;;;10.43;;
7361;SDS011;3721;44.490;11.220;2022-10-16T17:03:51;14.73;;;10.20;;
7361;SDS011;3721;44.490;11.220;2022-10-16T17:06:21;15.60;;;9.70;;
7361;SDS011;3721;44.490;11.220;2022-10-16T17:08:48;14.87;;;8.60;;
7361;SDS011;3721;44.490;11.220;2022-10-16T17:11:17;17.43;;;8.43;;
7361;SDS011;3721;44.490;11.220;2022-10-16T17:13:45;14.63;;;8.00;;
7361;SDS011;3721;44.490;11.220;2022-10-16T17:16:10;19.53;;;8.30;;
7361;SDS011;3721;44.490;11.220;2022-10-16T17:18:36;12.13;;;7.80;;